sensor_id;sensor_type;location;lat;lon;timestamp;P1;durP1;ratioP1;P2;durP2;ratioP2
22144;SDS011;11238;48.730;11.566;2023-07-31T00:00:31;3.63;;;1.65;;
22144;SDS011;11238;48.730;11.566;2023-07-31T00:02:57;4.72;;;1.67;;
22144;SDS011;11238;48.730;11.566;2023-07-31T00:05:22;6.85;;;2.03;;
22144;SDS011;11238;48.730;11.566;2023-07-31T00:07:48;3.50;;;1.65;;
22144;SDS011;11238;48.730;11.566;2023-07-31T00:10:14;3.88;;;1.65;;
22144;SDS011;11238;48.730;11.566;2023-07-31T00:12:41;4.95;;;2.00;;
22144;SDS011;11238;48.730;11.566;2023-07-31T00:15:08;5.28;;;1.83;;
22144;SDS011;11238;48.730;11.566;2023-07-31T00:17:34;2.85;;;1.80;;
22144;SDS011;11238;48.730;11.566;2023-07-31T00:20:02;5.00;;;1.60;;
22144;SDS011;11238;48.730;11.566;2023-07-31T00:22:28;6.07;;;2.13;;
22144;SDS011;11238;48.730;11.566;2023-07-31T00:24:53;6.38;;;1.88;;
22144;SDS011;11238;48.730;11.566;2023-07-31T00:27:19;5.90;;;1.73;;
22144;SDS011;11238;48.730;11.566;2023-07-31T00:29:45;3.47;;;1.80;;
22144;SDS011;11238;48.730;11.566;2023-07-31T00:32:11;6.55;;;2.10;;
22144;SDS011;11238;48.730;11.566;2023-07-31T00:34:37;5.43;;;2.10;;
22144;SDS011;11238;48.730;11.566;2023-07-31T00:37:03;7.05;;;2.00;;
22144;SDS011;11238;48.730;11.566;2023-07-31T00:39:30;4.75;;;1.80;;
22144;SDS011;11238;48.730;11.566;2023-07-31T00:41:56;5.80;;;1.75;;
22144;SDS011;11238;48.730;11.566;2023-07-31T00:44:22;5.35;;;1.73;;
22144;SDS011;11238;48.730;11.566;2023-07-31T00:46:48;5.10;;;1.90;;
22144;SDS011;11238;48.730;11.566;2023-07-31T00:49:14;4.88;;;1.60;;
22144;SDS011;11238;48.730;11.566;2023-07-31T00:52:02;4.28;;;2.00;;
22144;SDS011;11238;48.730;11.566;2023-07-31T00:54:29;7.78;;;1.88;;
22144;SDS011;11238;48.730;11.566;2023-07-31T00:56:54;4.57;;;1.88;;
22144;SDS011;11238;48.730;11.566;2023-07-31T00:59:20;4.15;;;2.08;;
22144;SDS011;11238;48.730;11.566;2023-07-31T01:01:46;6.15;;;1.73;;
22144;SDS011;11238;48.730;11.566;2023-07-31T01:04:13;4.72;;;1.77;;
22144;SDS011;11238;48.730;11.566;2023-07-31T01:06:49;2.72;;;1.63;;
22144;SDS011;11238;48.730;11.566;2023-07-31T01:09:47;5.80;;;1.83;;
22144;SDS011;11238;48.730;11.566;2023-07-31T01:12:22;5.10;;;1.90;;
22144;SDS011;11238;48.730;11.566;2023-07-31T01:14:51;6.15;;;2.30;;
22144;SDS011;11238;48.730;11.566;2023-07-31T01:17:26;4.75;;;2.25;;
22144;SDS011;11238;48.730;11.566;2023-07-31T01:19:52;4.22;;;2.05;;
22144;SDS011;11238;48.730;11.566;2023-07-31T01:28:30;4.88;;;1.80;;
22144;SDS011;11238;48.730;11.566;2023-07-31T01:31:28;8.38;;;2.10;;
22144;SDS011;11238;48.730;11.566;2023-07-31T01:33:56;6.18;;;2.17;;
22144;SDS011;11238;48.730;11.566;2023-07-31T01:36:25;4.78;;;2.30;;
22144;SDS011;11238;48.730;11.566;2023-07-31T01:38:51;5.60;;;2.05;;
22144;SDS011;11238;48.730;11.566;2023-07-31T01:41:18;4.32;;;2.03;;
22144;SDS011;11238;48.730;11.566;2023-07-31T01:43:47;7.47;;;2.33;;
22144;SDS011;11238;48.730;11.566;2023-07-31T01:46:13;8.30;;;2.22;;
22144;SDS011;11238;48.730;11.566;2023-07-31T01:48:39;4.25;;;2.28;;
22144;SDS011;11238;48.730;11.566;2023-07-31T01:51:07;3.78;;;1.75;;
22144;SDS011;11238;48.730;11.566;2023-07-31T01:53:35;10.60;;;2.20;;
22144;SDS011;11238;48.730;11.566;2023-07-31T01:56:00;7.18;;;2.42;;
22144;SDS011;11238;48.730;11.566;2023-07-31T01:58:26;5.75;;;2.08;;
22144;SDS011;11238;48.730;11.566;2023-07-31T02:00:53;5.32;;;1.90;;
22144;SDS011;11238;48.730;11.566;2023-07-31T02:03:19;5.55;;;2.10;;
22144;SDS011;11238;48.730;11.566;2023-07-31T02:05:48;4.43;;;1.67;;
22144;SDS011;11238;48.730;11.566;2023-07-31T02:08:15;6.60;;;1.77;;
22144;SDS011;11238;48.730;11.566;2023-07-31T02:10:42;3.00;;;2.00;;
22144;SDS011;11238;48.730;11.566;2023-07-31T02:13:08;6.35;;;2.15;;
22144;SDS011;11238;48.730;11.566;2023-07-31T02:15:34;4.03;;;2.10;;
22144;SDS011;11238;48.730;11.566;2023-07-31T02:18:01;3.58;;;2.15;;
22144;SDS011;11238;48.730;11.566;2023-07-31T02:20:27;7.63;;;2.55;;
22144;SDS011;11238;48.730;11.566;2023-07-31T02:22:52;8.88;;;2.33;;
22144;SDS011;11238;48.730;11.566;2023-07-31T02:25:18;5.18;;;2.20;;
22144;SDS011;11238;48.730;11.566;2023-07-31T02:27:44;5.03;;;2.15;;
22144;SDS011;11238;48.730;11.566;2023-07-31T02:30:10;3.40;;;2.33;;
22144;SDS011;11238;48.730;11.566;2023-07-31T02:32:37;4.97;;;2.30;;
22144;SDS011;11238;48.730;11.566;2023-07-31T02:35:02;5.07;;;2.20;;
22144;SDS011;11238;48.730;11.566;2023-07-31T02:37:29;6.97;;;2.28;;
22144;SDS011;11238;48.730;11.566;2023-07-31T02:39:55;9.85;;;2.70;;
22144;SDS011;11238;48.730;11.566;2023-07-31T02:42:20;3.72;;;1.92;;
22144;SDS011;11238;48.730;11.566;2023-07-31T02:44:46;4.55;;;2.25;;
22144;SDS011;11238;48.730;11.566;2023-07-31T02:47:12;5.45;;;2.35;;
22144;SDS011;11238;48.730;11.566;2023-07-31T02:49:38;3.22;;;2.25;;
22144;SDS011;11238;48.730;11.566;2023-07-31T02:52:04;4.05;;;2.30;;
22144;SDS011;11238;48.730;11.566;2023-07-31T02:54:30;4.38;;;2.30;;
22144;SDS011;11238;48.730;11.566;2023-07-31T02:56:56;3.08;;;2.17;;
22144;SDS011;11238;48.730;11.566;2023-07-31T02:59:22;5.60;;;2.08;;
22144;SDS011;11238;48.730;11.566;2023-07-31T03:01:47;5.18;;;2.40;;
22144;SDS011;11238;48.730;11.566;2023-07-31T03:04:14;5.50;;;2.22;;
22144;SDS011;11238;48.730;11.566;2023-07-31T03:06:39;4.88;;;2.42;;
22144;SDS011;11238;48.730;11.566;2023-07-31T03:09:05;5.80;;;2.00;;
22144;SDS011;11238;48.730;11.566;2023-07-31T03:11:31;6.57;;;3.15;;
22144;SDS011;11238;48.730;11.566;2023-07-31T03:13:57;5.05;;;2.53;;
22144;SDS011;11238;48.730;11.566;2023-07-31T03:16:23;6.57;;;2.47;;
22144;SDS011;11238;48.730;11.566;2023-07-31T03:18:48;6.47;;;2.67;;
22144;SDS011;11238;48.730;11.566;2023-07-31T03:21:14;6.03;;;2.30;;
22144;SDS011;11238;48.730;11.566;2023-07-31T03:23:40;4.05;;;2.42;;
22144;SDS011;11238;48.730;11.566;2023-07-31T03:26:06;3.40;;;2.13;;
22144;SDS011;11238;48.730;11.566;2023-07-31T03:28:33;5.88;;;2.80;;
22144;SDS011;11238;48.730;11.566;2023-07-31T03:30:59;6.57;;;2.38;;
22144;SDS011;11238;48.730;11.566;2023-07-31T03:33:25;3.72;;;2.35;;
22144;SDS011;11238;48.730;11.566;2023-07-31T03:35:51;5.28;;;2.70;;
22144;SDS011;11238;48.730;11.566;2023-07-31T03:38:17;4.20;;;2.22;;
22144;SDS011;11238;48.730;11.566;2023-07-31T03:40:43;6.50;;;2.40;;
22144;SDS011;11238;48.730;11.566;2023-07-31T03:43:10;6.47;;;3.00;;
22144;SDS011;11238;48.730;11.566;2023-07-31T03:45:37;3.03;;;2.55;;
22144;SDS011;11238;48.730;11.566;2023-07-31T03:48:04;7.05;;;2.78;;
22144;SDS011;11238;48.730;11.566;2023-07-31T03:50:30;7.00;;;2.65;;
22144;SDS011;11238;48.730;11.566;2023-07-31T03:53:00;7.20;;;2.70;;
22144;SDS011;11238;48.730;11.566;2023-07-31T03:55:25;7.10;;;2.63;;
22144;SDS011;11238;48.730;11.566;2023-07-31T03:57:51;5.97;;;2.70;;
22144;SDS011;11238;48.730;11.566;2023-07-31T04:00:17;7.82;;;2.63;;
22144;SDS011;11238;48.730;11.566;2023-07-31T04:02:43;6.40;;;2.47;;
22144;SDS011;11238;48.730;11.566;2023-07-31T04:05:09;7.80;;;2.45;;
22144;SDS011;11238;48.730;11.566;2023-07-31T04:07:36;5.40;;;2.45;;
22144;SDS011;11238;48.730;11.566;2023-07-31T04:10:02;3.75;;;2.50;;
22144;SDS011;11238;48.730;11.566;2023-07-31T04:12:28;2.88;;;2.17;;
22144;SDS011;11238;48.730;11.566;2023-07-31T04:14:54;8.27;;;2.72;;
22144;SDS011;11238;48.730;11.566;2023-07-31T04:17:20;6.95;;;2.42;;
22144;SDS011;11238;48.730;11.566;2023-07-31T04:19:46;5.18;;;2.47;;
22144;SDS011;11238;48.730;11.566;2023-07-31T04:22:12;5.70;;;2.80;;
22144;SDS011;11238;48.730;11.566;2023-07-31T04:24:38;4.40;;;2.60;;
22144;SDS011;11238;48.730;11.566;2023-07-31T04:27:03;6.88;;;3.22;;
22144;SDS011;11238;48.730;11.566;2023-07-31T04:29:29;6.95;;;2.75;;
22144;SDS011;11238;48.730;11.566;2023-07-31T04:31:55;4.03;;;2.53;;
22144;SDS011;11238;48.730;11.566;2023-07-31T04:34:21;4.72;;;2.90;;
22144;SDS011;11238;48.730;11.566;2023-07-31T04:36:47;5.70;;;2.78;;
22144;SDS011;11238;48.730;11.566;2023-07-31T04:39:13;5.55;;;3.30;;
22144;SDS011;11238;48.730;11.566;2023-07-31T04:41:39;5.68;;;2.80;;
22144;SDS011;11238;48.730;11.566;2023-07-31T04:44:04;6.55;;;2.40;;
22144;SDS011;11238;48.730;11.566;2023-07-31T04:46:30;5.43;;;2.65;;
22144;SDS011;11238;48.730;11.566;2023-07-31T04:48:56;7.88;;;3.42;;
22144;SDS011;11238;48.730;11.566;2023-07-31T04:51:22;5.78;;;2.70;;
22144;SDS011;11238;48.730;11.566;2023-07-31T04:53:49;6.10;;;2.80;;
22144;SDS011;11238;48.730;11.566;2023-07-31T04:56:15;8.65;;;2.75;;
22144;SDS011;11238;48.730;11.566;2023-07-31T04:58:41;11.27;;;2.97;;
22144;SDS011;11238;48.730;11.566;2023-07-31T05:01:07;4.55;;;2.60;;
22144;SDS011;11238;48.730;11.566;2023-07-31T05:03:33;4.55;;;2.88;;
22144;SDS011;11238;48.730;11.566;2023-07-31T05:05:59;6.30;;;2.60;;
22144;SDS011;11238;48.730;11.566;2023-07-31T05:08:25;5.20;;;2.30;;
22144;SDS011;11238;48.730;11.566;2023-07-31T05:10:51;5.70;;;2.45;;
22144;SDS011;11238;48.730;11.566;2023-07-31T05:13:17;2.80;;;2.10;;
22144;SDS011;11238;48.730;11.566;2023-07-31T05:15:43;9.25;;;2.53;;
22144;SDS011;11238;48.730;11.566;2023-07-31T05:18:09;6.40;;;2.58;;
22144;SDS011;11238;48.730;11.566;2023-07-31T05:20:35;2.95;;;2.13;;
22144;SDS011;11238;48.730;11.566;2023-07-31T05:23:01;7.40;;;2.38;;
22144;SDS011;11238;48.730;11.566;2023-07-31T05:25:27;3.78;;;2.22;;
22144;SDS011;11238;48.730;11.566;2023-07-31T05:27:52;3.50;;;2.20;;
22144;SDS011;11238;48.730;11.566;2023-07-31T05:30:18;3.83;;;1.90;;
22144;SDS011;11238;48.730;11.566;2023-07-31T05:32:44;4.38;;;2.22;;
22144;SDS011;11238;48.730;11.566;2023-07-31T05:35:10;4.90;;;2.45;;
22144;SDS011;11238;48.730;11.566;2023-07-31T05:37:36;3.47;;;2.22;;
22144;SDS011;11238;48.730;11.566;2023-07-31T05:40:01;8.00;;;2.60;;
22144;SDS011;11238;48.730;11.566;2023-07-31T05:42:27;4.85;;;2.30;;
22144;SDS011;11238;48.730;11.566;2023-07-31T05:44:53;4.88;;;2.50;;
22144;SDS011;11238;48.730;11.566;2023-07-31T05:47:19;3.72;;;2.15;;
22144;SDS011;11238;48.730;11.566;2023-07-31T05:49:45;5.50;;;2.53;;
22144;SDS011;11238;48.730;11.566;2023-07-31T05:52:11;3.50;;;2.10;;
22144;SDS011;11238;48.730;11.566;2023-07-31T05:54:36;5.47;;;2.45;;
22144;SDS011;11238;48.730;11.566;2023-07-31T05:57:02;5.90;;;2.58;;
22144;SDS011;11238;48.730;11.566;2023-07-31T05:59:28;4.40;;;1.95;;
22144;SDS011;11238;48.730;11.566;2023-07-31T06:01:55;5.22;;;2.30;;
22144;SDS011;11238;48.730;11.566;2023-07-31T06:04:20;5.15;;;2.50;;
22144;SDS011;11238;48.730;11.566;2023-07-31T06:06:46;2.58;;;1.77;;
22144;SDS011;11238;48.730;11.566;2023-07-31T06:09:12;4.97;;;2.08;;
22144;SDS011;11238;48.730;11.566;2023-07-31T06:11:39;5.68;;;2.20;;
22144;SDS011;11238;48.730;11.566;2023-07-31T06:14:05;4.18;;;1.98;;
22144;SDS011;11238;48.730;11.566;2023-07-31T06:16:31;3.35;;;1.75;;
22144;SDS011;11238;48.730;11.566;2023-07-31T06:18:56;6.32;;;2.30;;
22144;SDS011;11238;48.730;11.566;2023-07-31T06:21:22;5.80;;;2.45;;
22144;SDS011;11238;48.730;11.566;2023-07-31T06:23:48;3.50;;;2.10;;
22144;SDS011;11238;48.730;11.566;2023-07-31T06:26:13;4.20;;;2.10;;
22144;SDS011;11238;48.730;11.566;2023-07-31T06:28:42;4.82;;;2.10;;
22144;SDS011;11238;48.730;11.566;2023-07-31T06:31:08;5.72;;;2.30;;
22144;SDS011;11238;48.730;11.566;2023-07-31T06:33:34;6.50;;;1.98;;
22144;SDS011;11238;48.730;11.566;2023-07-31T06:36:00;5.80;;;2.10;;
22144;SDS011;11238;48.730;11.566;2023-07-31T06:38:26;9.23;;;2.33;;
22144;SDS011;11238;48.730;11.566;2023-07-31T06:40:53;5.80;;;2.30;;
22144;SDS011;11238;48.730;11.566;2023-07-31T06:43:19;3.70;;;2.00;;
22144;SDS011;11238;48.730;11.566;2023-07-31T06:45:45;5.30;;;2.78;;
22144;SDS011;11238;48.730;11.566;2023-07-31T06:48:11;5.80;;;2.28;;
22144;SDS011;11238;48.730;11.566;2023-07-31T06:50:37;5.82;;;2.17;;
22144;SDS011;11238;48.730;11.566;2023-07-31T06:53:03;4.60;;;2.38;;
22144;SDS011;11238;48.730;11.566;2023-07-31T06:55:29;5.65;;;2.25;;
22144;SDS011;11238;48.730;11.566;2023-07-31T06:57:55;4.95;;;2.30;;
22144;SDS011;11238;48.730;11.566;2023-07-31T07:00:22;6.30;;;2.58;;
22144;SDS011;11238;48.730;11.566;2023-07-31T07:02:49;5.75;;;2.53;;
22144;SDS011;11238;48.730;11.566;2023-07-31T07:05:16;4.32;;;2.38;;
22144;SDS011;11238;48.730;11.566;2023-07-31T07:07:43;5.88;;;2.50;;
22144;SDS011;11238;48.730;11.566;2023-07-31T07:10:09;5.93;;;2.20;;
22144;SDS011;11238;48.730;11.566;2023-07-31T07:12:35;6.13;;;2.33;;
22144;SDS011;11238;48.730;11.566;2023-07-31T07:15:02;5.10;;;2.25;;
22144;SDS011;11238;48.730;11.566;2023-07-31T07:17:29;7.50;;;2.00;;
22144;SDS011;11238;48.730;11.566;2023-07-31T07:19:58;3.58;;;2.13;;
22144;SDS011;11238;48.730;11.566;2023-07-31T07:22:25;9.05;;;2.20;;
22144;SDS011;11238;48.730;11.566;2023-07-31T07:24:52;6.88;;;2.40;;
22144;SDS011;11238;48.730;11.566;2023-07-31T07:27:18;7.10;;;1.92;;
22144;SDS011;11238;48.730;11.566;2023-07-31T07:29:45;4.13;;;1.80;;
22144;SDS011;11238;48.730;11.566;2023-07-31T07:32:12;4.47;;;2.20;;
22144;SDS011;11238;48.730;11.566;2023-07-31T07:34:38;5.60;;;2.13;;
22144;SDS011;11238;48.730;11.566;2023-07-31T07:37:04;3.35;;;1.80;;
22144;SDS011;11238;48.730;11.566;2023-07-31T07:39:30;7.03;;;2.50;;
22144;SDS011;11238;48.730;11.566;2023-07-31T07:41:56;6.32;;;2.47;;
22144;SDS011;11238;48.730;11.566;2023-07-31T07:44:22;4.75;;;2.25;;
22144;SDS011;11238;48.730;11.566;2023-07-31T07:46:51;5.57;;;2.10;;
22144;SDS011;11238;48.730;11.566;2023-07-31T07:49:17;3.60;;;2.05;;
22144;SDS011;11238;48.730;11.566;2023-07-31T07:51:43;4.10;;;2.17;;
22144;SDS011;11238;48.730;11.566;2023-07-31T07:54:09;3.72;;;2.03;;
22144;SDS011;11238;48.730;11.566;2023-07-31T07:56:35;4.95;;;2.25;;
22144;SDS011;11238;48.730;11.566;2023-07-31T07:59:01;6.93;;;2.20;;
22144;SDS011;11238;48.730;11.566;2023-07-31T08:01:27;5.07;;;2.00;;
22144;SDS011;11238;48.730;11.566;2023-07-31T08:03:53;6.63;;;2.28;;
22144;SDS011;11238;48.730;11.566;2023-07-31T08:06:19;5.25;;;2.00;;
22144;SDS011;11238;48.730;11.566;2023-07-31T08:08:45;5.18;;;2.10;;
22144;SDS011;11238;48.730;11.566;2023-07-31T08:11:10;3.53;;;1.88;;
22144;SDS011;11238;48.730;11.566;2023-07-31T08:13:36;4.35;;;2.10;;
22144;SDS011;11238;48.730;11.566;2023-07-31T08:16:03;3.40;;;2.00;;
22144;SDS011;11238;48.730;11.566;2023-07-31T08:18:32;8.05;;;2.10;;
22144;SDS011;11238;48.730;11.566;2023-07-31T08:20:58;6.75;;;2.20;;
22144;SDS011;11238;48.730;11.566;2023-07-31T08:23:24;3.72;;;1.70;;
22144;SDS011;11238;48.730;11.566;2023-07-31T08:25:50;5.38;;;1.67;;
22144;SDS011;11238;48.730;11.566;2023-07-31T08:28:16;4.90;;;2.30;;
22144;SDS011;11238;48.730;11.566;2023-07-31T08:30:42;3.97;;;1.85;;
22144;SDS011;11238;48.730;11.566;2023-07-31T08:33:08;5.50;;;1.80;;
22144;SDS011;11238;48.730;11.566;2023-07-31T08:35:33;6.95;;;2.17;;
22144;SDS011;11238;48.730;11.566;2023-07-31T08:37:59;6.13;;;2.13;;
22144;SDS011;11238;48.730;11.566;2023-07-31T08:40:25;5.75;;;2.00;;
22144;SDS011;11238;48.730;11.566;2023-07-31T08:42:53;1.80;;;1.52;;
22144;SDS011;11238;48.730;11.566;2023-07-31T08:45:22;7.03;;;2.10;;
22144;SDS011;11238;48.730;11.566;2023-07-31T08:47:49;3.63;;;1.80;;
22144;SDS011;11238;48.730;11.566;2023-07-31T08:50:16;2.42;;;1.80;;
22144;SDS011;11238;48.730;11.566;2023-07-31T08:52:48;4.65;;;1.90;;
22144;SDS011;11238;48.730;11.566;2023-07-31T08:55:15;4.95;;;2.03;;
22144;SDS011;11238;48.730;11.566;2023-07-31T08:57:42;6.53;;;2.30;;
22144;SDS011;11238;48.730;11.566;2023-07-31T09:00:09;4.18;;;1.92;;
22144;SDS011;11238;48.730;11.566;2023-07-31T09:02:46;3.78;;;2.00;;
22144;SDS011;11238;48.730;11.566;2023-07-31T09:05:17;3.95;;;1.80;;
22144;SDS011;11238;48.730;11.566;2023-07-31T09:07:45;6.05;;;2.25;;
22144;SDS011;11238;48.730;11.566;2023-07-31T09:10:13;2.88;;;1.40;;
22144;SDS011;11238;48.730;11.566;2023-07-31T09:12:39;3.65;;;1.65;;
22144;SDS011;11238;48.730;11.566;2023-07-31T09:15:05;4.22;;;1.48;;
22144;SDS011;11238;48.730;11.566;2023-07-31T09:17:32;4.60;;;2.00;;
22144;SDS011;11238;48.730;11.566;2023-07-31T09:20:15;3.42;;;1.55;;
22144;SDS011;11238;48.730;11.566;2023-07-31T09:22:45;6.90;;;1.58;;
22144;SDS011;11238;48.730;11.566;2023-07-31T09:30:24;6.38;;;2.05;;
22144;SDS011;11238;48.730;11.566;2023-07-31T09:32:50;4.18;;;1.60;;
22144;SDS011;11238;48.730;11.566;2023-07-31T09:38:03;4.68;;;1.90;;
22144;SDS011;11238;48.730;11.566;2023-07-31T09:40:35;3.92;;;1.63;;
22144;SDS011;11238;48.730;11.566;2023-07-31T09:43:05;6.15;;;1.73;;
22144;SDS011;11238;48.730;11.566;2023-07-31T09:45:34;5.05;;;1.88;;
22144;SDS011;11238;48.730;11.566;2023-07-31T09:48:07;3.25;;;1.67;;
22144;SDS011;11238;48.730;11.566;2023-07-31T09:50:38;5.50;;;2.00;;
22144;SDS011;11238;48.730;11.566;2023-07-31T09:53:05;4.88;;;2.17;;
22144;SDS011;11238;48.730;11.566;2023-07-31T09:55:32;5.05;;;1.75;;
22144;SDS011;11238;48.730;11.566;2023-07-31T09:57:59;2.78;;;1.55;;
22144;SDS011;11238;48.730;11.566;2023-07-31T10:00:28;4.20;;;1.75;;
22144;SDS011;11238;48.730;11.566;2023-07-31T10:02:55;8.38;;;1.70;;
22144;SDS011;11238;48.730;11.566;2023-07-31T10:05:25;4.05;;;1.70;;
22144;SDS011;11238;48.730;11.566;2023-07-31T10:08:00;4.78;;;2.17;;
22144;SDS011;11238;48.730;11.566;2023-07-31T10:10:26;6.05;;;2.10;;
22144;SDS011;11238;48.730;11.566;2023-07-31T10:12:53;5.40;;;1.83;;
22144;SDS011;11238;48.730;11.566;2023-07-31T10:15:21;5.93;;;2.17;;
22144;SDS011;11238;48.730;11.566;2023-07-31T10:17:48;3.38;;;1.33;;
22144;SDS011;11238;48.730;11.566;2023-07-31T10:20:16;4.05;;;1.70;;
22144;SDS011;11238;48.730;11.566;2023-07-31T10:22:45;4.57;;;1.92;;
22144;SDS011;11238;48.730;11.566;2023-07-31T10:25:11;4.65;;;1.95;;
22144;SDS011;11238;48.730;11.566;2023-07-31T10:27:40;3.85;;;1.60;;
22144;SDS011;11238;48.730;11.566;2023-07-31T10:30:17;5.60;;;1.85;;
22144;SDS011;11238;48.730;11.566;2023-07-31T10:32:45;6.85;;;1.88;;
22144;SDS011;11238;48.730;11.566;2023-07-31T10:35:13;3.40;;;2.08;;
22144;SDS011;11238;48.730;11.566;2023-07-31T10:37:41;6.63;;;1.95;;
22144;SDS011;11238;48.730;11.566;2023-07-31T10:40:12;6.68;;;1.73;;
22144;SDS011;11238;48.730;11.566;2023-07-31T10:42:56;2.95;;;1.63;;
22144;SDS011;11238;48.730;11.566;2023-07-31T10:45:44;5.97;;;1.98;;
22144;SDS011;11238;48.730;11.566;2023-07-31T10:48:12;4.68;;;1.60;;
22144;SDS011;11238;48.730;11.566;2023-07-31T10:50:49;3.50;;;1.70;;
22144;SDS011;11238;48.730;11.566;2023-07-31T10:53:39;6.60;;;2.08;;
22144;SDS011;11238;48.730;11.566;2023-07-31T10:56:06;5.20;;;2.30;;
22144;SDS011;11238;48.730;11.566;2023-07-31T10:58:33;3.58;;;1.98;;
22144;SDS011;11238;48.730;11.566;2023-07-31T11:01:01;6.40;;;2.30;;
22144;SDS011;11238;48.730;11.566;2023-07-31T11:03:42;4.63;;;1.80;;
22144;SDS011;11238;48.730;11.566;2023-07-31T11:06:09;4.80;;;2.10;;
22144;SDS011;11238;48.730;11.566;2023-07-31T11:08:40;3.65;;;2.03;;
22144;SDS011;11238;48.730;11.566;2023-07-31T11:11:09;4.90;;;1.80;;
22144;SDS011;11238;48.730;11.566;2023-07-31T11:13:44;4.47;;;1.73;;
22144;SDS011;11238;48.730;11.566;2023-07-31T11:16:19;6.25;;;1.83;;
22144;SDS011;11238;48.730;11.566;2023-07-31T11:18:46;5.25;;;1.55;;
22144;SDS011;11238;48.730;11.566;2023-07-31T11:21:14;6.20;;;1.98;;
22144;SDS011;11238;48.730;11.566;2023-07-31T11:23:45;6.82;;;1.90;;
22144;SDS011;11238;48.730;11.566;2023-07-31T11:26:11;7.75;;;1.70;;
22144;SDS011;11238;48.730;11.566;2023-07-31T11:28:38;6.00;;;1.80;;
22144;SDS011;11238;48.730;11.566;2023-07-31T11:31:03;3.00;;;1.67;;
22144;SDS011;11238;48.730;11.566;2023-07-31T11:33:30;5.32;;;1.83;;
22144;SDS011;11238;48.730;11.566;2023-07-31T11:35:56;3.92;;;1.70;;
22144;SDS011;11238;48.730;11.566;2023-07-31T11:38:23;4.93;;;1.98;;
22144;SDS011;11238;48.730;11.566;2023-07-31T11:40:53;6.25;;;2.05;;
22144;SDS011;11238;48.730;11.566;2023-07-31T11:43:21;7.38;;;2.22;;
22144;SDS011;11238;48.730;11.566;2023-07-31T11:46:05;3.30;;;1.75;;
22144;SDS011;11238;48.730;11.566;2023-07-31T11:48:33;4.80;;;1.83;;
22144;SDS011;11238;48.730;11.566;2023-07-31T11:51:22;4.25;;;1.80;;
22144;SDS011;11238;48.730;11.566;2023-07-31T11:53:51;3.00;;;1.45;;
22144;SDS011;11238;48.730;11.566;2023-07-31T11:56:20;5.15;;;1.65;;
22144;SDS011;11238;48.730;11.566;2023-07-31T11:58:49;2.70;;;1.70;;
22144;SDS011;11238;48.730;11.566;2023-07-31T12:01:19;3.95;;;1.77;;
22144;SDS011;11238;48.730;11.566;2023-07-31T12:03:46;6.50;;;1.92;;
22144;SDS011;11238;48.730;11.566;2023-07-31T12:06:12;3.15;;;1.60;;
22144;SDS011;11238;48.730;11.566;2023-07-31T12:08:38;2.67;;;1.50;;
22144;SDS011;11238;48.730;11.566;2023-07-31T12:11:05;4.78;;;1.60;;
22144;SDS011;11238;48.730;11.566;2023-07-31T12:13:32;1.98;;;1.40;;
22144;SDS011;11238;48.730;11.566;2023-07-31T12:15:59;3.75;;;1.77;;
22144;SDS011;11238;48.730;11.566;2023-07-31T12:18:29;3.50;;;1.80;;
22144;SDS011;11238;48.730;11.566;2023-07-31T12:20:59;5.60;;;1.85;;
22144;SDS011;11238;48.730;11.566;2023-07-31T12:26:06;5.65;;;1.73;;
22144;SDS011;11238;48.730;11.566;2023-07-31T12:28:38;5.38;;;1.67;;
22144;SDS011;11238;48.730;11.566;2023-07-31T12:31:10;4.82;;;1.88;;
22144;SDS011;11238;48.730;11.566;2023-07-31T12:33:38;8.35;;;2.08;;
22144;SDS011;11238;48.730;11.566;2023-07-31T12:36:09;3.45;;;1.65;;
22144;SDS011;11238;48.730;11.566;2023-07-31T12:38:37;2.28;;;1.52;;
22144;SDS011;11238;48.730;11.566;2023-07-31T12:41:03;5.40;;;2.15;;
22144;SDS011;11238;48.730;11.566;2023-07-31T12:43:29;3.13;;;1.60;;
22144;SDS011;11238;48.730;11.566;2023-07-31T12:45:55;3.95;;;1.77;;
22144;SDS011;11238;48.730;11.566;2023-07-31T12:48:22;4.05;;;1.50;;
22144;SDS011;11238;48.730;11.566;2023-07-31T12:50:47;3.45;;;1.55;;
22144;SDS011;11238;48.730;11.566;2023-07-31T12:53:14;4.82;;;1.98;;
22144;SDS011;11238;48.730;11.566;2023-07-31T12:55:40;4.70;;;1.85;;
22144;SDS011;11238;48.730;11.566;2023-07-31T12:58:06;4.60;;;1.90;;
22144;SDS011;11238;48.730;11.566;2023-07-31T13:00:32;4.88;;;1.77;;
22144;SDS011;11238;48.730;11.566;2023-07-31T13:02:59;2.67;;;1.67;;
22144;SDS011;11238;48.730;11.566;2023-07-31T13:05:26;3.53;;;1.80;;
22144;SDS011;11238;48.730;11.566;2023-07-31T13:07:52;4.03;;;1.95;;
22144;SDS011;11238;48.730;11.566;2023-07-31T13:10:18;4.38;;;1.58;;
22144;SDS011;11238;48.730;11.566;2023-07-31T13:12:45;5.57;;;1.85;;
22144;SDS011;11238;48.730;11.566;2023-07-31T13:15:11;10.75;;;1.98;;
22144;SDS011;11238;48.730;11.566;2023-07-31T13:17:39;3.38;;;2.10;;
22144;SDS011;11238;48.730;11.566;2023-07-31T13:20:05;7.50;;;1.80;;
22144;SDS011;11238;48.730;11.566;2023-07-31T13:22:32;4.82;;;1.63;;
22144;SDS011;11238;48.730;11.566;2023-07-31T13:25:00;4.05;;;1.92;;
22144;SDS011;11238;48.730;11.566;2023-07-31T13:27:25;6.53;;;1.73;;
22144;SDS011;11238;48.730;11.566;2023-07-31T13:29:52;3.22;;;1.77;;
22144;SDS011;11238;48.730;11.566;2023-07-31T13:32:19;4.40;;;1.73;;
22144;SDS011;11238;48.730;11.566;2023-07-31T13:34:45;4.57;;;1.70;;
22144;SDS011;11238;48.730;11.566;2023-07-31T13:37:12;4.40;;;1.70;;
22144;SDS011;11238;48.730;11.566;2023-07-31T13:39:38;4.22;;;2.03;;
22144;SDS011;11238;48.730;11.566;2023-07-31T13:42:05;5.15;;;2.03;;
22144;SDS011;11238;48.730;11.566;2023-07-31T13:44:36;4.57;;;1.80;;
22144;SDS011;11238;48.730;11.566;2023-07-31T13:47:03;6.78;;;1.95;;
22144;SDS011;11238;48.730;11.566;2023-07-31T13:49:29;3.78;;;1.60;;
22144;SDS011;11238;48.730;11.566;2023-07-31T13:51:58;3.80;;;1.50;;
22144;SDS011;11238;48.730;11.566;2023-07-31T13:54:24;4.20;;;1.80;;
22144;SDS011;11238;48.730;11.566;2023-07-31T13:56:51;5.53;;;2.13;;
22144;SDS011;11238;48.730;11.566;2023-07-31T13:59:18;5.15;;;1.90;;
22144;SDS011;11238;48.730;11.566;2023-07-31T14:01:44;2.88;;;1.67;;
22144;SDS011;11238;48.730;11.566;2023-07-31T14:04:10;4.45;;;2.17;;
22144;SDS011;11238;48.730;11.566;2023-07-31T14:06:36;6.13;;;1.85;;
22144;SDS011;11238;48.730;11.566;2023-07-31T14:09:02;2.63;;;1.65;;
22144;SDS011;11238;48.730;11.566;2023-07-31T14:11:28;3.40;;;1.80;;
22144;SDS011;11238;48.730;11.566;2023-07-31T14:13:55;5.70;;;1.80;;
22144;SDS011;11238;48.730;11.566;2023-07-31T14:16:21;4.25;;;1.98;;
22144;SDS011;11238;48.730;11.566;2023-07-31T14:18:47;4.35;;;1.98;;
22144;SDS011;11238;48.730;11.566;2023-07-31T14:21:13;7.65;;;2.28;;
22144;SDS011;11238;48.730;11.566;2023-07-31T14:23:44;4.03;;;1.88;;
22144;SDS011;11238;48.730;11.566;2023-07-31T14:26:10;3.55;;;1.83;;
22144;SDS011;11238;48.730;11.566;2023-07-31T14:28:36;4.50;;;1.83;;
22144;SDS011;11238;48.730;11.566;2023-07-31T14:31:02;5.38;;;2.67;;
22144;SDS011;11238;48.730;11.566;2023-07-31T14:33:28;5.28;;;1.80;;
22144;SDS011;11238;48.730;11.566;2023-07-31T14:35:54;4.28;;;2.17;;
22144;SDS011;11238;48.730;11.566;2023-07-31T14:38:20;5.75;;;2.40;;
22144;SDS011;11238;48.730;11.566;2023-07-31T14:40:45;4.43;;;2.05;;
22144;SDS011;11238;48.730;11.566;2023-07-31T14:43:11;3.92;;;2.10;;
22144;SDS011;11238;48.730;11.566;2023-07-31T14:45:37;5.03;;;2.03;;
22144;SDS011;11238;48.730;11.566;2023-07-31T14:48:03;4.03;;;2.30;;
22144;SDS011;11238;48.730;11.566;2023-07-31T14:50:29;3.38;;;2.13;;